createdAt,value
2017-03-17T00:01:10.747Z,8.76
2017-03-17T00:02:25.189Z,8.72
2017-03-17T00:03:39.599Z,8.7
2017-03-17T00:04:55.612Z,8.67
2017-03-17T00:06:11.202Z,8.67
2017-03-17T00:07:28.003Z,8.66
2017-03-17T00:08:42.896Z,8.66
2017-03-17T00:09:57.766Z,8.65
2017-03-17T00:11:13.135Z,8.6
2017-03-17T00:12:30.278Z,8.58
2017-03-17T00:13:45.907Z,8.54
2017-03-17T00:15:02.118Z,8.52
2017-03-17T00:16:21.929Z,8.49
2017-03-17T00:17:44.452Z,8.45
2017-03-17T00:19:02.054Z,8.4
2017-03-17T00:20:18.319Z,8.34
2017-03-17T00:21:35.509Z,8.3
2017-03-17T00:22:51.888Z,8.25
2017-03-17T00:24:09.240Z,8.19
2017-03-17T00:25:27.195Z,8.16
2017-03-17T00:26:45.482Z,8.14
2017-03-17T00:28:01.729Z,8.12
2017-03-17T00:29:16.935Z,8.1
2017-03-17T00:30:31.625Z,8.1
2017-03-17T00:31:47.168Z,8.08
2017-03-17T00:33:04.527Z,8.07
2017-03-17T00:34:19.484Z,8.06
2017-03-17T00:35:34.568Z,8.07
2017-03-17T00:36:49.768Z,8.07
2017-03-17T00:38:05.983Z,8.07
2017-03-17T00:39:24.900Z,8.07
2017-03-17T00:40:39.172Z,8.06
2017-03-17T00:41:54.044Z,8.06
2017-03-17T00:43:07.765Z,8.05
2017-03-17T00:44:22.369Z,8.05
2017-03-17T00:45:36.534Z,8.05
2017-03-17T00:46:51.584Z,8.02
2017-03-17T00:48:05.368Z,8.02
2017-03-17T00:49:19.093Z,8
2017-03-17T00:50:34.420Z,7.97
2017-03-17T00:51:48.635Z,7.96
2017-03-17T00:53:03.105Z,7.94
2017-03-17T00:54:17.575Z,7.94
2017-03-17T00:55:33.444Z,7.95
2017-03-17T00:56:47.164Z,7.97
2017-03-17T00:58:02.126Z,7.99
2017-03-17T00:59:17.489Z,8
2017-03-17T01:00:32.362Z,8
2017-03-17T01:01:47.246Z,7.99
2017-03-17T01:03:00.923Z,7.98
2017-03-17T01:04:15.063Z,7.98
2017-03-17T01:05:30.150Z,7.99
2017-03-17T01:06:44.020Z,7.99
2017-03-17T01:07:59.885Z,7.99
2017-03-17T01:09:14.785Z,8
2017-03-17T01:10:31.131Z,8.02
2017-03-17T01:11:45.833Z,8.02
2017-03-17T01:13:00.256Z,8.03
2017-03-17T01:14:15.438Z,8.01
2017-03-17T01:15:30.659Z,8
2017-03-17T01:16:44.834Z,7.96
2017-03-17T01:17:58.908Z,7.93
2017-03-17T01:19:13.586Z,7.89
2017-03-17T01:20:27.321Z,7.84
2017-03-17T01:21:41.062Z,7.79
2017-03-17T01:22:55.106Z,7.75
2017-03-17T01:24:09.346Z,7.71
2017-03-17T01:25:23.275Z,7.68
2017-03-17T01:26:37.282Z,7.66
2017-03-17T01:27:51.070Z,7.62
2017-03-17T01:29:04.726Z,7.6
2017-03-17T01:30:18.351Z,7.59
2017-03-17T01:31:31.973Z,7.56
2017-03-17T01:32:58.747Z,7.54
2017-03-17T01:34:12.357Z,7.51
2017-03-17T01:35:26.002Z,7.5
2017-03-17T01:36:39.599Z,7.49
2017-03-17T01:37:53.363Z,7.5
2017-03-17T01:39:07.798Z,7.5
2017-03-17T01:40:21.522Z,7.51
2017-03-17T01:41:35.231Z,7.51
2017-03-17T01:42:51.577Z,7.52
2017-03-17T01:44:05.573Z,7.53
2017-03-17T01:45:19.598Z,7.56
2017-03-17T01:46:33.221Z,7.58
2017-03-17T01:47:47.246Z,7.6
2017-03-17T01:49:01.240Z,7.61
2017-03-17T01:50:15.012Z,7.61
2017-03-17T01:51:28.747Z,7.61
2017-03-17T01:52:42.481Z,7.6
2017-03-17T01:53:56.417Z,7.6
2017-03-17T01:55:10.047Z,7.6
2017-03-17T01:56:23.949Z,7.58
2017-03-17T01:57:37.979Z,7.58
2017-03-17T01:58:52.236Z,7.56
2017-03-17T02:00:06.194Z,7.55
2017-03-17T02:01:20.520Z,7.52
2017-03-17T02:02:35.195Z,7.49
2017-03-17T02:03:49.581Z,7.44
2017-03-17T02:05:03.353Z,7.38
2017-03-17T02:06:17.405Z,7.33
2017-03-17T02:07:31.161Z,7.29
2017-03-17T02:08:45.225Z,7.23
2017-03-17T02:09:59.258Z,7.19
2017-03-17T02:11:12.890Z,7.16
2017-03-17T02:12:26.828Z,7.13
2017-03-17T02:13:40.590Z,7.1
2017-03-17T02:14:54.495Z,7.07
2017-03-17T02:16:08.103Z,7.06
2017-03-17T02:17:21.723Z,7.05
2017-03-17T02:18:36.029Z,7.04
2017-03-17T02:19:50.125Z,7.04
2017-03-17T02:21:03.795Z,7.05
2017-03-17T02:22:17.749Z,7.05
2017-03-17T02:23:31.719Z,7.07
2017-03-17T02:24:45.946Z,7.08
2017-03-17T02:25:59.738Z,7.07
2017-03-17T02:27:14.187Z,7.05
2017-03-17T02:28:27.849Z,7.04
2017-03-17T02:29:41.899Z,7.02
2017-03-17T02:30:56.001Z,7.02
2017-03-17T02:32:10.341Z,7.01
2017-03-17T02:33:23.988Z,7
2017-03-17T02:34:38.059Z,6.98
2017-03-17T02:35:51.740Z,6.96
2017-03-17T02:37:05.867Z,6.96
2017-03-17T02:38:19.963Z,6.97
2017-03-17T02:39:34.030Z,6.98
2017-03-17T02:40:48.418Z,6.99
2017-03-17T02:42:02.456Z,6.99
2017-03-17T02:43:16.090Z,7
2017-03-17T02:44:29.775Z,7.02
2017-03-17T02:45:43.922Z,7.03
2017-03-17T02:46:57.530Z,7.04
2017-03-17T02:48:11.490Z,7.07
2017-03-17T02:49:25.458Z,7.09
2017-03-17T02:50:39.668Z,7.1
2017-03-17T02:51:53.309Z,7.12
2017-03-17T02:53:06.961Z,7.14
2017-03-17T02:54:20.985Z,7.17
2017-03-17T02:55:34.703Z,7.17
2017-03-17T02:56:49.504Z,7.19
2017-03-17T02:58:03.574Z,7.2
2017-03-17T02:59:19.862Z,7.21
2017-03-17T03:00:33.949Z,7.22
2017-03-17T03:01:48.014Z,7.23
2017-03-17T03:03:01.691Z,7.24
2017-03-17T03:04:16.172Z,7.25
2017-03-17T03:05:30.631Z,7.25
2017-03-17T03:06:44.368Z,7.24
2017-03-17T03:07:57.987Z,7.25
2017-03-17T03:09:11.948Z,7.24
2017-03-17T03:10:25.701Z,7.23
2017-03-17T03:11:39.729Z,7.21
2017-03-17T03:12:53.645Z,7.18
2017-03-17T03:14:07.927Z,7.17
2017-03-17T03:15:21.609Z,7.15
2017-03-17T03:16:35.712Z,7.15
2017-03-17T03:17:50.353Z,7.13
2017-03-17T03:19:04.316Z,7.1
2017-03-17T03:20:18.400Z,7.08
2017-03-17T03:21:32.397Z,7.05
2017-03-17T03:22:46.318Z,7.02
2017-03-17T03:24:00.386Z,7
2017-03-17T03:25:14.070Z,6.96
2017-03-17T03:26:28.101Z,6.93
2017-03-17T03:27:41.731Z,6.9
2017-03-17T03:28:55.744Z,6.85
2017-03-17T03:30:09.836Z,6.82
2017-03-17T03:31:23.864Z,6.77
2017-03-17T03:32:37.482Z,6.73
2017-03-17T03:33:51.472Z,6.69
2017-03-17T03:35:05.522Z,6.66
2017-03-17T03:36:19.440Z,6.63
2017-03-17T03:37:33.415Z,6.62
2017-03-17T03:38:48.029Z,6.61
2017-03-17T03:40:01.685Z,6.61
2017-03-17T03:41:15.699Z,6.6
2017-03-17T03:42:29.333Z,6.62
2017-03-17T03:43:43.113Z,6.63
2017-03-17T03:44:57.119Z,6.65
2017-03-17T03:46:10.799Z,6.65
2017-03-17T03:47:24.425Z,6.66
2017-03-17T03:48:38.191Z,6.67
2017-03-17T03:49:52.382Z,6.66
2017-03-17T03:51:06.976Z,6.67
2017-03-17T03:52:21.481Z,6.69
2017-03-17T03:53:36.260Z,6.71
2017-03-17T03:54:52.164Z,6.73
2017-03-17T03:56:06.298Z,6.77
2017-03-17T03:57:21.281Z,6.8
2017-03-17T03:58:36.209Z,6.82
2017-03-17T04:00:03.357Z,6.85
2017-03-17T04:01:18.188Z,6.89
2017-03-17T04:02:33.043Z,6.91
2017-03-17T04:03:48.001Z,6.91
2017-03-17T04:05:02.939Z,6.92
2017-03-17T04:06:17.309Z,6.92
2017-03-17T04:07:31.871Z,6.92
2017-03-17T04:08:47.215Z,6.93
2017-03-17T04:10:01.341Z,6.92
2017-03-17T04:11:17.030Z,6.93
2017-03-17T04:12:31.774Z,6.93
2017-03-17T04:13:46.374Z,6.92
2017-03-17T04:15:01.167Z,6.9
2017-03-17T04:16:18.457Z,6.87
2017-03-17T04:17:32.121Z,6.84
2017-03-17T04:18:46.651Z,6.82
2017-03-17T04:20:00.841Z,6.78
2017-03-17T04:21:15.522Z,6.74
2017-03-17T04:22:31.294Z,6.72
2017-03-17T04:23:46.205Z,6.69
2017-03-17T04:25:01.063Z,6.66
2017-03-17T04:26:15.553Z,6.66
2017-03-17T04:27:29.256Z,6.65
2017-03-17T04:28:43.576Z,6.65
2017-03-17T04:29:58.703Z,6.64
2017-03-17T04:31:13.530Z,6.63
2017-03-17T04:32:27.566Z,6.62
2017-03-17T04:33:42.403Z,6.63
2017-03-17T04:34:56.921Z,6.62
2017-03-17T04:36:11.331Z,6.64
2017-03-17T04:37:25.789Z,6.64
2017-03-17T04:38:39.939Z,6.66
2017-03-17T04:39:53.668Z,6.67
2017-03-17T04:41:08.096Z,6.69
2017-03-17T04:42:22.435Z,6.7
2017-03-17T04:43:36.299Z,6.7
2017-03-17T04:44:50.639Z,6.71
2017-03-17T04:46:04.628Z,6.7
2017-03-17T04:47:18.321Z,6.71
2017-03-17T04:48:32.009Z,6.72
2017-03-17T04:49:45.744Z,6.71
2017-03-17T04:50:59.468Z,6.73
2017-03-17T04:52:13.061Z,6.72
2017-03-17T04:53:26.977Z,6.71
2017-03-17T04:54:41.054Z,6.72
2017-03-17T04:55:54.974Z,6.72
2017-03-17T04:57:08.629Z,6.72
2017-03-17T04:58:22.224Z,6.73
2017-03-17T04:59:35.885Z,6.74
2017-03-17T05:00:50.227Z,6.75
2017-03-17T05:02:05.302Z,6.75
2017-03-17T05:03:19.768Z,6.74
2017-03-17T05:04:33.689Z,6.74
2017-03-17T05:05:47.443Z,6.74
2017-03-17T05:07:01.109Z,6.74
2017-03-17T05:08:15.122Z,6.74
2017-03-17T05:09:29.110Z,6.76
2017-03-17T05:10:43.173Z,6.78
2017-03-17T05:11:57.704Z,6.79
2017-03-17T05:13:11.668Z,6.82
2017-03-17T05:14:25.315Z,6.82
2017-03-17T05:15:38.964Z,6.82
2017-03-17T05:16:54.187Z,6.84
2017-03-17T05:18:07.922Z,6.85
2017-03-17T05:19:21.722Z,6.86
2017-03-17T05:20:35.781Z,6.86
2017-03-17T05:21:49.937Z,6.86
2017-03-17T05:23:03.958Z,6.85
2017-03-17T05:24:18.768Z,6.86
2017-03-17T05:25:35.087Z,6.86
2017-03-17T05:26:52.775Z,6.87
2017-03-17T05:28:08.220Z,6.87
2017-03-17T05:29:24.899Z,6.86
2017-03-17T05:30:40.685Z,6.85
2017-03-17T05:31:55.144Z,6.86
2017-03-17T05:33:12.280Z,6.83
2017-03-17T05:34:26.689Z,6.8
2017-03-17T05:35:41.167Z,6.78
2017-03-17T05:36:55.298Z,6.8
2017-03-17T05:38:09.702Z,6.8
2017-03-17T05:39:24.086Z,6.83
2017-03-17T05:40:37.832Z,6.87
2017-03-17T05:41:51.997Z,6.9
2017-03-17T05:43:06.749Z,6.95
2017-03-17T05:44:21.152Z,6.99
2017-03-17T05:45:35.007Z,7.05
2017-03-17T05:46:48.998Z,7.1
2017-03-17T05:48:17.539Z,7.16
2017-03-17T05:49:31.287Z,7.18
2017-03-17T05:50:44.991Z,7.21
2017-03-17T05:51:58.636Z,7.22
2017-03-17T05:53:12.704Z,7.25
2017-03-17T05:54:26.836Z,7.24
2017-03-17T05:55:41.188Z,7.27
2017-03-17T05:56:55.380Z,7.29
2017-03-17T05:58:09.493Z,7.3
2017-03-17T05:59:23.764Z,7.33
2017-03-17T06:00:38.154Z,7.35
2017-03-17T06:01:51.795Z,7.35
2017-03-17T06:03:06.542Z,7.39
2017-03-17T06:04:21.256Z,7.4
2017-03-17T06:05:35.913Z,7.4
2017-03-17T06:06:49.903Z,7.4
2017-03-17T06:08:03.599Z,7.43
2017-03-17T06:09:18.988Z,7.47
2017-03-17T06:10:33.011Z,7.48
2017-03-17T06:11:46.737Z,7.52
2017-03-17T06:13:00.771Z,7.56
2017-03-17T06:14:14.826Z,7.59
2017-03-17T06:15:29.277Z,7.61
2017-03-17T06:16:43.251Z,7.66
2017-03-17T06:17:57.705Z,7.69
2017-03-17T06:19:12.108Z,7.75
2017-03-17T06:20:26.159Z,7.77
2017-03-17T06:21:40.345Z,7.78
2017-03-17T06:22:54.595Z,7.8
2017-03-17T06:24:08.990Z,7.82
2017-03-17T06:25:24.173Z,7.86
2017-03-17T06:26:39.082Z,7.91
2017-03-17T06:27:53.723Z,7.95
2017-03-17T06:29:07.851Z,8.01
2017-03-17T06:30:22.056Z,8.03
2017-03-17T06:31:36.390Z,8.09
2017-03-17T06:32:51.752Z,8.14
2017-03-17T06:34:05.499Z,8.19
2017-03-17T06:35:20.185Z,8.25
2017-03-17T06:36:34.043Z,8.3
2017-03-17T06:37:48.436Z,8.35
2017-03-17T06:39:02.145Z,8.41
2017-03-17T06:40:17.081Z,8.47
2017-03-17T06:41:31.475Z,8.52
2017-03-17T06:42:47.587Z,8.58
2017-03-17T06:44:02.167Z,8.61
2017-03-17T06:45:16.683Z,8.63
2017-03-17T06:46:31.835Z,8.67
2017-03-17T06:47:45.928Z,8.71
2017-03-17T06:49:00.030Z,8.78
2017-03-17T06:50:17.564Z,8.84
2017-03-17T06:51:31.287Z,8.87
2017-03-17T06:52:45.583Z,8.9
2017-03-17T06:54:00.263Z,8.88
2017-03-17T06:55:14.089Z,8.88
2017-03-17T06:56:27.868Z,8.88
2017-03-17T06:57:41.579Z,8.88
2017-03-17T06:58:56.357Z,8.91
2017-03-17T07:00:10.965Z,8.94
2017-03-17T07:01:25.572Z,8.98
2017-03-17T07:02:39.942Z,9.02
2017-03-17T07:03:53.680Z,9.05
2017-03-17T07:05:08.023Z,9.1
2017-03-17T07:06:22.254Z,9.13
2017-03-17T07:07:36.430Z,9.16
2017-03-17T07:08:50.893Z,9.22
2017-03-17T07:10:06.532Z,9.26
2017-03-17T07:11:23.159Z,9.31
2017-03-17T07:12:39.512Z,9.35
2017-03-17T07:13:53.611Z,9.41
2017-03-17T07:15:08.703Z,9.48
2017-03-17T07:16:42.531Z,9.54
2017-03-17T07:17:57.700Z,9.6
2017-03-17T07:19:12.474Z,9.68
2017-03-17T07:20:27.993Z,9.77
2017-03-17T07:21:42.569Z,9.86
2017-03-17T07:22:57.134Z,9.95
2017-03-17T07:24:10.946Z,10.03
2017-03-17T07:25:25.037Z,10.14
2017-03-17T07:26:39.745Z,10.22
2017-03-17T07:27:55.923Z,10.32
2017-03-17T07:29:10.064Z,10.38
2017-03-17T07:30:23.913Z,10.42
2017-03-17T07:31:38.115Z,10.47
2017-03-17T07:32:52.197Z,10.53
2017-03-17T07:34:05.994Z,10.57
2017-03-17T07:35:19.755Z,10.63
2017-03-17T07:36:33.520Z,10.7
2017-03-17T07:37:47.262Z,10.79
2017-03-17T07:39:01.977Z,10.89
2017-03-17T07:40:16.698Z,10.95
2017-03-17T07:41:31.554Z,11.04
2017-03-17T07:42:58.348Z,11.13
2017-03-17T07:44:12.965Z,11.24
2017-03-17T07:45:26.693Z,11.33
2017-03-17T07:46:40.741Z,11.46
2017-03-17T07:47:54.847Z,11.61
2017-03-17T07:49:08.833Z,11.72
2017-03-17T07:50:22.962Z,11.81
2017-03-17T07:51:36.808Z,11.87
2017-03-17T07:53:10.057Z,11.88
2017-03-17T07:54:24.717Z,11.91
2017-03-17T07:55:38.706Z,12.02
2017-03-17T07:56:52.718Z,12.05
2017-03-17T07:58:06.343Z,12.12
2017-03-17T07:59:20.786Z,12.24
2017-03-17T08:00:34.428Z,12.39
2017-03-17T08:01:48.792Z,12.48
2017-03-17T08:03:03.767Z,12.54
2017-03-17T08:04:17.396Z,12.6
2017-03-17T08:05:31.718Z,12.67
2017-03-17T08:06:46.459Z,12.71
2017-03-17T08:08:02.483Z,12.74
2017-03-17T08:09:16.808Z,12.81
2017-03-17T08:10:30.777Z,12.84
2017-03-17T08:11:44.775Z,12.84
2017-03-17T08:12:59.122Z,12.85
2017-03-17T08:14:13.596Z,12.87
2017-03-17T08:15:27.429Z,12.92
2017-03-17T08:16:42.442Z,12.96
2017-03-17T08:17:56.074Z,12.99
2017-03-17T08:19:10.007Z,12.97
2017-03-17T08:20:24.652Z,12.94
2017-03-17T08:21:38.751Z,12.98
2017-03-17T08:22:52.935Z,13.06
2017-03-17T08:24:07.955Z,13.12
2017-03-17T08:25:21.734Z,13.18
2017-03-17T08:26:35.936Z,13.27
2017-03-17T08:27:49.707Z,13.37
2017-03-17T08:29:03.755Z,13.52
2017-03-17T08:30:17.824Z,13.66
2017-03-17T08:31:31.891Z,13.75
2017-03-17T08:32:46.646Z,13.8
2017-03-17T08:34:00.385Z,13.84
2017-03-17T08:35:14.449Z,13.88
2017-03-17T08:36:28.895Z,13.86
2017-03-17T08:37:42.978Z,13.86
2017-03-17T08:38:57.089Z,13.86
2017-03-17T08:40:10.697Z,13.87
2017-03-17T08:41:24.978Z,13.89
2017-03-17T08:42:38.763Z,13.91
2017-03-17T08:43:52.434Z,13.92
2017-03-17T08:45:06.520Z,13.93
2017-03-17T08:46:20.937Z,13.93
2017-03-17T08:47:34.952Z,13.95
2017-03-17T08:48:48.626Z,13.98
2017-03-17T08:50:02.281Z,14.04
2017-03-17T08:51:16.957Z,14.1
2017-03-17T08:52:30.693Z,14.13
2017-03-17T08:53:45.197Z,14.15
2017-03-17T08:54:59.327Z,14.15
2017-03-17T08:56:13.396Z,14.15
2017-03-17T08:57:27.180Z,14.15
2017-03-17T08:58:41.605Z,14.16
2017-03-17T08:59:55.646Z,14.16
2017-03-17T09:01:09.963Z,14.2
2017-03-17T09:02:24.986Z,14.21
2017-03-17T09:03:38.681Z,14.25
2017-03-17T09:04:52.715Z,14.31
2017-03-17T09:06:06.434Z,14.36
2017-03-17T09:07:20.717Z,14.39
2017-03-17T09:08:35.041Z,14.44
2017-03-17T09:09:48.709Z,14.45
2017-03-17T09:11:02.410Z,14.42
2017-03-17T09:12:16.850Z,14.39
2017-03-17T09:13:30.872Z,14.4
2017-03-17T09:14:45.397Z,14.44
2017-03-17T09:15:59.387Z,14.49
2017-03-17T09:17:14.296Z,14.49
2017-03-17T09:18:28.461Z,14.5
2017-03-17T09:19:42.490Z,14.5
2017-03-17T09:20:56.115Z,14.49
2017-03-17T09:22:09.835Z,14.49
2017-03-17T09:23:23.896Z,14.47
2017-03-17T09:24:40.442Z,14.43
2017-03-17T09:25:54.094Z,14.41
2017-03-17T09:27:08.049Z,14.39
2017-03-17T09:28:22.521Z,14.37
2017-03-17T09:29:36.174Z,14.37
2017-03-17T09:30:50.132Z,14.39
2017-03-17T09:32:03.869Z,14.41
2017-03-17T09:33:18.652Z,14.43
2017-03-17T09:34:34.399Z,14.43
2017-03-17T09:35:48.989Z,14.45
2017-03-17T09:37:03.917Z,14.43
2017-03-17T09:38:19.264Z,14.43
2017-03-17T09:39:37.219Z,14.45
2017-03-17T09:40:53.528Z,14.46
2017-03-17T09:42:08.206Z,14.48
2017-03-17T09:43:22.773Z,14.5
2017-03-17T09:44:39.019Z,14.53
2017-03-17T09:45:52.715Z,14.55
2017-03-17T09:47:08.398Z,14.6
2017-03-17T09:48:23.720Z,14.66
2017-03-17T09:49:40.111Z,14.73
2017-03-17T09:50:55.554Z,14.76
2017-03-17T09:52:09.689Z,14.83
2017-03-17T09:53:28.163Z,14.95
2017-03-17T09:54:42.922Z,15.09
2017-03-17T09:55:58.146Z,15.22
2017-03-17T09:57:13.666Z,15.38
2017-03-17T09:58:30.180Z,15.56
2017-03-17T10:00:00.031Z,15.62
2017-03-17T10:01:28.044Z,15.77
2017-03-17T10:02:48.508Z,15.89
2017-03-17T10:04:03.421Z,15.97
2017-03-17T10:05:31.002Z,16.09
2017-03-17T10:06:45.908Z,16.22
2017-03-17T10:08:00.583Z,16.38
2017-03-17T10:09:15.568Z,16.55
2017-03-17T10:10:33.073Z,16.74
2017-03-17T10:11:47.486Z,16.93
2017-03-17T10:13:01.891Z,17.13
2017-03-17T10:14:16.968Z,17.19
2017-03-17T10:15:31.943Z,17.19
2017-03-17T10:16:48.480Z,17.07
2017-03-17T10:18:04.143Z,16.87
2017-03-17T10:19:19.077Z,16.72
2017-03-17T10:20:32.854Z,16.61
2017-03-17T10:21:46.951Z,16.5
2017-03-17T10:23:01.428Z,16.35
2017-03-17T10:24:16.208Z,16.18
2017-03-17T10:25:31.382Z,15.97
2017-03-17T10:26:46.895Z,15.75
2017-03-17T10:28:01.468Z,15.57
2017-03-17T10:29:16.798Z,15.43
2017-03-17T10:30:31.778Z,15.33
2017-03-17T10:31:47.304Z,15.26
2017-03-17T10:33:03.274Z,15.22
2017-03-17T10:34:18.229Z,15.21
2017-03-17T10:35:33.348Z,15.2
2017-03-17T10:36:47.181Z,15.18
2017-03-17T10:38:01.884Z,15.16
2017-03-17T10:39:17.948Z,15.16
2017-03-17T10:40:40.303Z,15.19
2017-03-17T10:41:55.082Z,15.22
2017-03-17T10:43:12.928Z,15.27
2017-03-17T10:44:27.900Z,15.36
2017-03-17T10:45:43.050Z,15.5
2017-03-17T10:46:58.362Z,15.67
2017-03-17T10:48:14.962Z,15.86
2017-03-17T10:49:29.218Z,16.06
2017-03-17T10:50:45.345Z,16.27
2017-03-17T10:51:59.387Z,16.48
2017-03-17T10:53:15.236Z,16.66
2017-03-17T10:54:28.901Z,16.75
2017-03-17T10:55:42.981Z,16.74
2017-03-17T10:56:58.674Z,16.63
2017-03-17T10:58:13.483Z,16.48
2017-03-17T10:59:29.096Z,16.39
2017-03-17T11:00:44.008Z,16.37
2017-03-17T11:01:58.503Z,16.36
2017-03-17T11:03:13.485Z,16.42
2017-03-17T11:04:28.318Z,16.5
2017-03-17T11:05:43.325Z,16.53
2017-03-17T11:06:57.980Z,16.6
2017-03-17T11:08:13.085Z,16.68
2017-03-17T11:09:28.659Z,16.77
2017-03-17T11:10:42.660Z,16.83
2017-03-17T11:11:57.204Z,16.91
2017-03-17T11:13:11.573Z,16.98
2017-03-17T11:14:26.401Z,17.08
2017-03-17T11:15:40.554Z,17.18
2017-03-17T11:16:54.904Z,17.25
2017-03-17T11:18:08.812Z,17.32
2017-03-17T11:19:23.701Z,17.38
2017-03-17T11:20:37.597Z,17.44
2017-03-17T11:21:51.692Z,17.49
2017-03-17T11:23:06.469Z,17.54
2017-03-17T11:24:21.211Z,17.59
2017-03-17T11:25:35.162Z,17.6
2017-03-17T11:26:49.290Z,17.64
2017-03-17T11:28:03.391Z,17.7
2017-03-17T11:29:18.116Z,17.77
2017-03-17T11:30:32.945Z,17.79
2017-03-17T11:31:46.616Z,17.82
2017-03-17T11:33:01.847Z,17.87
2017-03-17T11:34:17.279Z,17.94
2017-03-17T11:35:31.696Z,17.94
2017-03-17T11:36:46.555Z,17.95
2017-03-17T11:38:00.266Z,18.01
2017-03-17T11:39:15.203Z,18.07
2017-03-17T11:40:28.931Z,18.11
2017-03-17T11:41:43.692Z,18.12
2017-03-17T11:42:57.935Z,18.15
2017-03-17T11:44:12.499Z,18.17
2017-03-17T11:45:27.286Z,18.19
2017-03-17T11:46:41.756Z,18.18
2017-03-17T11:47:56.271Z,18.13
2017-03-17T11:49:11.882Z,18.05
2017-03-17T11:50:26.173Z,17.95
2017-03-17T11:51:40.589Z,17.86
2017-03-17T11:52:55.037Z,17.75
2017-03-17T11:54:13.506Z,17.65
2017-03-17T11:55:28.074Z,17.55
2017-03-17T11:56:42.143Z,17.48
2017-03-17T11:57:56.511Z,17.44
2017-03-17T11:59:10.870Z,17.39
2017-03-17T12:00:26.961Z,17.33
2017-03-17T12:01:41.730Z,17.27
2017-03-17T12:02:55.636Z,17.23
2017-03-17T12:04:09.304Z,17.21
2017-03-17T12:05:23.646Z,17.23
2017-03-17T12:06:38.048Z,17.24
2017-03-17T12:07:51.978Z,17.24
2017-03-17T12:09:05.652Z,17.25
2017-03-17T12:10:20.003Z,17.25
2017-03-17T12:11:34.388Z,17.22
2017-03-17T12:12:49.626Z,17.25
2017-03-17T12:14:03.992Z,17.29
2017-03-17T12:15:18.373Z,17.34
2017-03-17T12:16:33.490Z,17.38
2017-03-17T12:17:47.641Z,17.41
2017-03-17T12:19:02.369Z,17.4
2017-03-17T12:20:17.007Z,17.42
2017-03-17T12:21:30.760Z,17.45
2017-03-17T12:22:44.844Z,17.56
2017-03-17T12:23:59.281Z,17.7
2017-03-17T12:25:14.937Z,17.83
2017-03-17T12:26:29.363Z,17.9
2017-03-17T12:27:46.816Z,17.93
2017-03-17T12:29:01.858Z,17.96
2017-03-17T12:30:15.565Z,17.95
2017-03-17T12:31:30.210Z,17.93
2017-03-17T12:32:44.976Z,17.93
2017-03-17T12:33:59.667Z,18
2017-03-17T12:35:13.935Z,18.14
2017-03-17T12:36:28.347Z,18.28
2017-03-17T12:37:42.996Z,18.37
2017-03-17T12:38:58.870Z,18.4
2017-03-17T12:40:13.720Z,18.34
2017-03-17T12:41:28.378Z,18.27
2017-03-17T12:42:42.893Z,18.19
2017-03-17T12:43:58.330Z,18.04
2017-03-17T12:45:12.917Z,17.86
2017-03-17T12:46:29.413Z,17.77
2017-03-17T12:47:44.437Z,17.74
2017-03-17T12:48:59.704Z,17.73
2017-03-17T12:50:14.756Z,17.67
2017-03-17T12:51:29.462Z,17.57
2017-03-17T12:52:44.910Z,17.46
2017-03-17T12:53:59.620Z,17.24
2017-03-17T12:55:14.580Z,17.04
2017-03-17T12:56:29.438Z,16.89
2017-03-17T12:57:44.705Z,16.84
2017-03-17T12:58:59.660Z,16.82
2017-03-17T13:00:13.989Z,16.82
2017-03-17T13:01:29.865Z,16.78
2017-03-17T13:02:44.494Z,16.71
2017-03-17T13:03:59.581Z,16.59
2017-03-17T13:05:13.343Z,16.5
2017-03-17T13:06:28.762Z,16.46
2017-03-17T13:07:43.170Z,16.42
2017-03-17T13:08:58.270Z,16.38
2017-03-17T13:10:13.259Z,16.36
2017-03-17T13:11:28.355Z,16.35
2017-03-17T13:12:43.394Z,16.32
2017-03-17T13:13:57.681Z,16.28
2017-03-17T13:15:13.547Z,16.24
2017-03-17T13:16:27.329Z,16.22
2017-03-17T13:17:44.282Z,16.22
2017-03-17T13:18:59.197Z,16.26
2017-03-17T13:20:13.915Z,16.33
2017-03-17T13:21:30.015Z,16.36
2017-03-17T13:22:44.874Z,16.35
2017-03-17T13:23:58.529Z,16.36
2017-03-17T13:25:12.891Z,16.37
2017-03-17T13:26:27.214Z,16.39
2017-03-17T13:27:41.599Z,16.39
2017-03-17T13:28:56.740Z,16.35
2017-03-17T13:30:10.740Z,16.33
2017-03-17T13:31:24.921Z,16.26
2017-03-17T13:32:39.906Z,16.23
2017-03-17T13:33:55.607Z,16.23
2017-03-17T13:35:09.971Z,16.25
2017-03-17T13:36:23.994Z,16.26
2017-03-17T13:37:38.281Z,16.32
2017-03-17T13:38:51.952Z,16.37
2017-03-17T13:40:07.130Z,16.38
2017-03-17T13:41:21.710Z,16.43
2017-03-17T13:42:36.494Z,16.5
2017-03-17T13:43:50.661Z,16.57
2017-03-17T13:45:05.785Z,16.67
2017-03-17T13:46:20.337Z,16.76
2017-03-17T13:47:35.763Z,16.85
2017-03-17T13:48:49.878Z,16.98
2017-03-17T13:50:05.056Z,17.1
2017-03-17T13:51:18.778Z,17.17
2017-03-17T13:52:33.198Z,17.18
2017-03-17T13:53:46.895Z,17.15
2017-03-17T13:55:01.027Z,17.14
2017-03-17T13:56:14.769Z,17.11
2017-03-17T13:57:29.579Z,17.1
2017-03-17T13:58:45.223Z,17.08
2017-03-17T14:00:00.160Z,17.1
2017-03-17T14:01:15.552Z,17.11
2017-03-17T14:02:30.417Z,17.15
2017-03-17T14:03:44.849Z,17.2
2017-03-17T14:04:59.881Z,17.23
2017-03-17T14:06:14.388Z,17.28
2017-03-17T14:07:29.997Z,17.28
2017-03-17T14:08:45.676Z,17.22
2017-03-17T14:09:59.828Z,17.09
2017-03-17T14:11:14.808Z,17
2017-03-17T14:12:30.202Z,16.88
2017-03-17T14:13:44.758Z,16.83
2017-03-17T14:14:58.570Z,16.76
2017-03-17T14:16:12.553Z,16.7
2017-03-17T14:17:39.242Z,16.65
2017-03-17T14:18:53.000Z,16.61
2017-03-17T14:20:07.115Z,16.58
2017-03-17T14:21:21.027Z,16.55
2017-03-17T14:22:35.936Z,16.55
2017-03-17T14:23:50.879Z,16.58
2017-03-17T14:25:08.612Z,16.58
2017-03-17T14:26:24.448Z,16.57
2017-03-17T14:27:39.452Z,16.59
2017-03-17T14:28:54.077Z,16.61
2017-03-17T14:30:12.275Z,16.55
2017-03-17T14:31:27.249Z,16.51
2017-03-17T14:32:42.799Z,16.47
2017-03-17T14:33:58.226Z,16.43
2017-03-17T14:35:16.050Z,16.37
2017-03-17T14:36:30.525Z,16.31
2017-03-17T14:37:44.189Z,16.28
2017-03-17T14:38:58.703Z,16.28
2017-03-17T14:40:13.869Z,16.29
2017-03-17T14:41:27.884Z,16.3
2017-03-17T14:42:42.037Z,16.29
2017-03-17T14:43:56.651Z,16.29
2017-03-17T14:45:10.974Z,16.28
2017-03-17T14:46:26.762Z,16.26
2017-03-17T14:47:41.403Z,16.23
2017-03-17T14:48:55.814Z,16.21
2017-03-17T14:50:10.056Z,16.2
2017-03-17T14:51:24.831Z,16.21
2017-03-17T14:52:38.938Z,16.25
2017-03-17T14:53:52.594Z,16.27
2017-03-17T14:55:06.732Z,16.3
2017-03-17T14:56:21.398Z,16.32
2017-03-17T14:57:36.116Z,16.32
2017-03-17T14:58:50.078Z,16.31
2017-03-17T15:00:04.550Z,16.3
2017-03-17T15:01:18.947Z,16.29
2017-03-17T15:02:33.330Z,16.29
2017-03-17T15:03:46.965Z,16.28
2017-03-17T15:05:01.789Z,16.27
2017-03-17T15:06:16.572Z,16.25
2017-03-17T15:07:30.220Z,16.23
2017-03-17T15:08:44.353Z,16.18
2017-03-17T15:09:59.030Z,16.12
2017-03-17T15:11:13.799Z,16.09
2017-03-17T15:12:27.830Z,16.07
2017-03-17T15:13:42.585Z,16.07
2017-03-17T15:14:56.678Z,16.07
2017-03-17T15:16:11.059Z,16.02
2017-03-17T15:17:25.374Z,15.98
2017-03-17T15:18:39.813Z,15.95
2017-03-17T15:19:54.481Z,15.93
2017-03-17T15:21:09.148Z,15.94
2017-03-17T15:22:22.963Z,15.96
2017-03-17T15:23:37.239Z,15.97
2017-03-17T15:24:51.947Z,15.97
2017-03-17T15:26:06.305Z,15.99
2017-03-17T15:27:35.342Z,15.98
2017-03-17T15:28:50.343Z,15.97
2017-03-17T15:30:04.742Z,15.95
2017-03-17T15:31:19.551Z,15.9
2017-03-17T15:32:33.413Z,15.88
2017-03-17T15:33:47.176Z,15.89
2017-03-17T15:35:01.493Z,15.91
2017-03-17T15:36:15.793Z,15.92
2017-03-17T15:37:29.692Z,15.94
2017-03-17T15:38:45.882Z,15.96
2017-03-17T15:40:04.198Z,15.99
2017-03-17T15:41:18.423Z,16.02
2017-03-17T15:42:34.560Z,16.05
2017-03-17T15:43:51.453Z,16.07
2017-03-17T15:45:07.173Z,16.08
2017-03-17T15:46:22.087Z,16.06
2017-03-17T15:47:36.218Z,16.05
2017-03-17T15:48:50.425Z,16.02
2017-03-17T15:50:04.887Z,16.02
2017-03-17T15:51:19.088Z,16.01
2017-03-17T15:52:36.847Z,16.03
2017-03-17T15:54:45.268Z,16.02
2017-03-17T15:55:59.951Z,16.03
2017-03-17T15:57:16.198Z,16.03
2017-03-17T15:58:37.115Z,16.02
2017-03-17T15:59:51.282Z,16
2017-03-17T16:01:06.273Z,15.96
2017-03-17T16:02:20.422Z,15.89
2017-03-17T16:03:35.523Z,15.82
2017-03-17T16:04:50.281Z,15.75
2017-03-17T16:06:04.294Z,15.68
2017-03-17T16:07:19.054Z,15.61
2017-03-17T16:08:34.186Z,15.54
2017-03-17T16:09:48.382Z,15.47
2017-03-17T16:11:04.743Z,15.42
2017-03-17T16:12:19.211Z,15.36
2017-03-17T16:13:34.653Z,15.35
2017-03-17T16:14:48.367Z,15.29
2017-03-17T16:16:03.595Z,15.24
2017-03-17T16:17:17.511Z,15.19
2017-03-17T16:18:32.531Z,15.17
2017-03-17T16:19:47.470Z,15.15
2017-03-17T16:21:02.927Z,15.12
2017-03-17T16:22:17.031Z,15.08
2017-03-17T16:23:32.238Z,14.99